sensor_id;sensor_type;location;lat;lon;timestamp;temperature;humidity
16801;DHT22;8518;53.236;10.384;2023-01-09T00:01:16;6.30;99.90
16801;DHT22;8518;53.236;10.384;2023-01-09T00:03:42;6.40;99.90
16801;DHT22;8518;53.236;10.384;2023-01-09T00:06:11;6.50;99.90
16801;DHT22;8518;53.236;10.384;2023-01-09T00:08:37;6.50;99.90
16801;DHT22;8518;53.236;10.384;2023-01-09T00:11:02;6.60;99.90
16801;DHT22;8518;53.236;10.384;2023-01-09T00:13:28;6.60;99.90
16801;DHT22;8518;53.236;10.384;2023-01-09T00:15:53;6.60;99.90
16801;DHT22;8518;53.236;10.384;2023-01-09T00:18:19;6.70;99.90
16801;DHT22;8518;53.236;10.384;2023-01-09T00:20:45;6.70;99.90
16801;DHT22;8518;53.236;10.384;2023-01-09T00:23:10;6.60;99.90
16801;DHT22;8518;53.236;10.384;2023-01-09T00:25:36;6.70;99.90
16801;DHT22;8518;53.236;10.384;2023-01-09T00:28:02;6.70;99.90
16801;DHT22;8518;53.236;10.384;2023-01-09T00:30:28;6.70;99.90
16801;DHT22;8518;53.236;10.384;2023-01-09T00:32:54;6.80;99.90
16801;DHT22;8518;53.236;10.384;2023-01-09T00:35:22;6.80;99.90
16801;DHT22;8518;53.236;10.384;2023-01-09T00:37:48;6.80;99.90
16801;DHT22;8518;53.236;10.384;2023-01-09T00:40:18;6.80;99.90
16801;DHT22;8518;53.236;10.384;2023-01-09T00:42:46;6.80;99.90
16801;DHT22;8518;53.236;10.384;2023-01-09T00:45:20;6.90;99.90
16801;DHT22;8518;53.236;10.384;2023-01-09T00:47:54;6.90;99.90
16801;DHT22;8518;53.236;10.384;2023-01-09T00:50:22;6.90;99.90
16801;DHT22;8518;53.236;10.384;2023-01-09T00:52:50;6.90;99.90
16801;DHT22;8518;53.236;10.384;2023-01-09T00:55:21;6.80;99.90
16801;DHT22;8518;53.236;10.384;2023-01-09T00:57:48;6.70;99.90
16801;DHT22;8518;53.236;10.384;2023-01-09T01:00:14;6.70;99.90
16801;DHT22;8518;53.236;10.384;2023-01-09T01:02:40;6.60;99.90
16801;DHT22;8518;53.236;10.384;2023-01-09T01:05:09;6.60;99.90
16801;DHT22;8518;53.236;10.384;2023-01-09T01:07:53;6.60;99.90
16801;DHT22;8518;53.236;10.384;2023-01-09T01:10:21;6.50;99.90
16801;DHT22;8518;53.236;10.384;2023-01-09T01:12:48;6.50;99.90
16801;DHT22;8518;53.236;10.384;2023-01-09T01:15:15;6.50;99.90
16801;DHT22;8518;53.236;10.384;2023-01-09T01:17:41;6.40;99.90
16801;DHT22;8518;53.236;10.384;2023-01-09T01:20:11;6.40;99.90
16801;DHT22;8518;53.236;10.384;2023-01-09T01:22:37;6.40;99.90
16801;DHT22;8518;53.236;10.384;2023-01-09T01:25:04;6.40;99.90
16801;DHT22;8518;53.236;10.384;2023-01-09T01:27:30;6.40;99.90
16801;DHT22;8518;53.236;10.384;2023-01-09T01:29:56;6.30;99.90
16801;DHT22;8518;53.236;10.384;2023-01-09T01:32:22;6.30;99.90
16801;DHT22;8518;53.236;10.384;2023-01-09T01:34:48;6.30;99.90
16801;DHT22;8518;53.236;10.384;2023-01-09T01:37:13;6.30;99.90
16801;DHT22;8518;53.236;10.384;2023-01-09T01:39:39;6.20;99.90
16801;DHT22;8518;53.236;10.384;2023-01-09T01:42:06;6.30;99.90
16801;DHT22;8518;53.236;10.384;2023-01-09T01:50:17;6.30;99.90
16801;DHT22;8518;53.236;10.384;2023-01-09T01:52:47;6.30;99.90
16801;DHT22;8518;53.236;10.384;2023-01-09T01:55:14;6.30;99.90
16801;DHT22;8518;53.236;10.384;2023-01-09T01:57:45;6.30;99.90
16801;DHT22;8518;53.236;10.384;2023-01-09T02:00:13;6.30;99.90
16801;DHT22;8518;53.236;10.384;2023-01-09T02:02:38;6.30;99.90
16801;DHT22;8518;53.236;10.384;2023-01-09T02:05:04;6.30;99.90
16801;DHT22;8518;53.236;10.384;2023-01-09T02:07:34;6.20;99.90
16801;DHT22;8518;53.236;10.384;2023-01-09T02:10:00;6.20;99.90
16801;DHT22;8518;53.236;10.384;2023-01-09T02:12:26;6.30;99.90
16801;DHT22;8518;53.236;10.384;2023-01-09T02:23:14;6.40;99.90
16801;DHT22;8518;53.236;10.384;2023-01-09T02:26:18;6.40;99.90
16801;DHT22;8518;53.236;10.384;2023-01-09T02:43:16;6.50;99.90
16801;DHT22;8518;53.236;10.384;2023-01-09T02:45:42;6.50;99.90
16801;DHT22;8518;53.236;10.384;2023-01-09T02:48:11;6.50;99.90
16801;DHT22;8518;53.236;10.384;2023-01-09T02:51:07;6.60;99.90
16801;DHT22;8518;53.236;10.384;2023-01-09T02:56:18;6.60;99.90
16801;DHT22;8518;53.236;10.384;2023-01-09T02:59:11;6.60;99.90
16801;DHT22;8518;53.236;10.384;2023-01-09T03:02:01;6.60;99.90
16801;DHT22;8518;53.236;10.384;2023-01-09T03:07:14;6.60;99.90
16801;DHT22;8518;53.236;10.384;2023-01-09T03:09:44;6.60;99.90
16801;DHT22;8518;53.236;10.384;2023-01-09T03:12:21;6.60;99.90
16801;DHT22;8518;53.236;10.384;2023-01-09T03:14:50;6.60;99.90
16801;DHT22;8518;53.236;10.384;2023-01-09T03:17:42;6.60;99.90
16801;DHT22;8518;53.236;10.384;2023-01-09T03:20:09;6.60;99.90
16801;DHT22;8518;53.236;10.384;2023-01-09T03:22:39;6.60;99.90
16801;DHT22;8518;53.236;10.384;2023-01-09T03:25:05;6.60;99.90
16801;DHT22;8518;53.236;10.384;2023-01-09T03:27:31;6.70;99.90
16801;DHT22;8518;53.236;10.384;2023-01-09T03:29:56;6.70;99.90
16801;DHT22;8518;53.236;10.384;2023-01-09T03:32:22;6.70;99.90
16801;DHT22;8518;53.236;10.384;2023-01-09T03:34:48;6.70;99.90
16801;DHT22;8518;53.236;10.384;2023-01-09T03:37:13;6.70;99.90
16801;DHT22;8518;53.236;10.384;2023-01-09T03:39:39;6.70;99.90
16801;DHT22;8518;53.236;10.384;2023-01-09T03:42:05;6.80;99.90
16801;DHT22;8518;53.236;10.384;2023-01-09T03:44:30;6.70;99.90
16801;DHT22;8518;53.236;10.384;2023-01-09T03:46:56;6.70;99.90
16801;DHT22;8518;53.236;10.384;2023-01-09T03:49:21;7.00;99.90
16801;DHT22;8518;53.236;10.384;2023-01-09T03:51:47;6.70;99.90
16801;DHT22;8518;53.236;10.384;2023-01-09T03:54:13;6.70;99.90
16801;DHT22;8518;53.236;10.384;2023-01-09T03:56:38;6.70;99.90
16801;DHT22;8518;53.236;10.384;2023-01-09T03:59:04;6.70;99.90
16801;DHT22;8518;53.236;10.384;2023-01-09T04:01:30;6.70;99.90
16801;DHT22;8518;53.236;10.384;2023-01-09T04:03:55;6.70;99.90
16801;DHT22;8518;53.236;10.384;2023-01-09T04:06:21;6.70;99.90
16801;DHT22;8518;53.236;10.384;2023-01-09T04:08:46;6.60;99.90
16801;DHT22;8518;53.236;10.384;2023-01-09T04:11:12;6.70;99.90
16801;DHT22;8518;53.236;10.384;2023-01-09T04:13:38;6.70;99.90
16801;DHT22;8518;53.236;10.384;2023-01-09T04:16:04;6.70;99.90
16801;DHT22;8518;53.236;10.384;2023-01-09T04:18:30;6.70;99.90
16801;DHT22;8518;53.236;10.384;2023-01-09T04:20:55;6.70;99.90
16801;DHT22;8518;53.236;10.384;2023-01-09T04:23:21;6.70;99.90
16801;DHT22;8518;53.236;10.384;2023-01-09T04:25:47;6.70;99.90
16801;DHT22;8518;53.236;10.384;2023-01-09T04:28:13;6.80;99.90
16801;DHT22;8518;53.236;10.384;2023-01-09T04:30:39;6.80;99.90
16801;DHT22;8518;53.236;10.384;2023-01-09T04:33:04;6.80;99.90
16801;DHT22;8518;53.236;10.384;2023-01-09T04:35:30;6.90;99.90
16801;DHT22;8518;53.236;10.384;2023-01-09T04:37:55;6.90;99.90
16801;DHT22;8518;53.236;10.384;2023-01-09T04:40:21;7.00;99.90
16801;DHT22;8518;53.236;10.384;2023-01-09T04:42:47;6.90;99.90
16801;DHT22;8518;53.236;10.384;2023-01-09T04:45:13;6.90;99.90
16801;DHT22;8518;53.236;10.384;2023-01-09T04:47:40;6.90;99.90
16801;DHT22;8518;53.236;10.384;2023-01-09T04:50:06;6.90;99.90
16801;DHT22;8518;53.236;10.384;2023-01-09T04:52:32;6.90;99.90
16801;DHT22;8518;53.236;10.384;2023-01-09T04:54:57;7.00;99.90
16801;DHT22;8518;53.236;10.384;2023-01-09T04:57:23;7.00;99.90
16801;DHT22;8518;53.236;10.384;2023-01-09T04:59:49;7.00;99.90
16801;DHT22;8518;53.236;10.384;2023-01-09T05:02:14;7.00;99.90
16801;DHT22;8518;53.236;10.384;2023-01-09T05:04:40;7.00;99.90
16801;DHT22;8518;53.236;10.384;2023-01-09T05:07:06;7.00;99.90
16801;DHT22;8518;53.236;10.384;2023-01-09T05:09:31;7.00;99.90
16801;DHT22;8518;53.236;10.384;2023-01-09T05:11:57;7.00;99.90
16801;DHT22;8518;53.236;10.384;2023-01-09T05:14:23;6.90;99.90
16801;DHT22;8518;53.236;10.384;2023-01-09T05:16:48;7.00;99.90
16801;DHT22;8518;53.236;10.384;2023-01-09T05:19:14;6.90;99.90
16801;DHT22;8518;53.236;10.384;2023-01-09T05:21:40;6.90;99.90
16801;DHT22;8518;53.236;10.384;2023-01-09T05:24:05;6.90;99.90
16801;DHT22;8518;53.236;10.384;2023-01-09T05:26:31;6.90;99.90
16801;DHT22;8518;53.236;10.384;2023-01-09T05:28:57;6.90;99.90
16801;DHT22;8518;53.236;10.384;2023-01-09T05:31:24;6.90;99.90
16801;DHT22;8518;53.236;10.384;2023-01-09T05:33:50;6.80;99.90
16801;DHT22;8518;53.236;10.384;2023-01-09T05:36:19;6.90;99.90
16801;DHT22;8518;53.236;10.384;2023-01-09T05:38:44;6.80;99.90
16801;DHT22;8518;53.236;10.384;2023-01-09T05:41:10;6.80;99.90
16801;DHT22;8518;53.236;10.384;2023-01-09T05:43:36;6.80;99.90
16801;DHT22;8518;53.236;10.384;2023-01-09T05:46:01;6.80;99.90
16801;DHT22;8518;53.236;10.384;2023-01-09T05:48:28;6.80;99.90
16801;DHT22;8518;53.236;10.384;2023-01-09T05:50:54;6.80;99.90
16801;DHT22;8518;53.236;10.384;2023-01-09T05:53:19;6.70;99.90
16801;DHT22;8518;53.236;10.384;2023-01-09T05:55:45;6.80;99.90
16801;DHT22;8518;53.236;10.384;2023-01-09T05:58:11;6.70;99.90
16801;DHT22;8518;53.236;10.384;2023-01-09T06:00:37;6.70;99.90
16801;DHT22;8518;53.236;10.384;2023-01-09T06:03:02;6.70;99.90
16801;DHT22;8518;53.236;10.384;2023-01-09T06:05:28;6.60;99.90
16801;DHT22;8518;53.236;10.384;2023-01-09T06:07:54;7.10;99.90
16801;DHT22;8518;53.236;10.384;2023-01-09T06:10:19;6.60;99.90
16801;DHT22;8518;53.236;10.384;2023-01-09T06:12:49;6.70;99.90
16801;DHT22;8518;53.236;10.384;2023-01-09T06:15:16;6.70;99.90
16801;DHT22;8518;53.236;10.384;2023-01-09T06:17:42;6.70;99.90
16801;DHT22;8518;53.236;10.384;2023-01-09T06:20:09;6.80;99.90
16801;DHT22;8518;53.236;10.384;2023-01-09T06:22:35;6.80;99.90
16801;DHT22;8518;53.236;10.384;2023-01-09T06:25:01;6.80;99.90
16801;DHT22;8518;53.236;10.384;2023-01-09T06:27:26;6.80;99.90
16801;DHT22;8518;53.236;10.384;2023-01-09T06:29:52;6.70;99.90
16801;DHT22;8518;53.236;10.384;2023-01-09T06:32:18;6.80;99.90
16801;DHT22;8518;53.236;10.384;2023-01-09T06:34:43;6.90;99.90
16801;DHT22;8518;53.236;10.384;2023-01-09T06:37:09;6.80;99.90
16801;DHT22;8518;53.236;10.384;2023-01-09T06:39:35;6.90;99.90
16801;DHT22;8518;53.236;10.384;2023-01-09T06:42:01;6.80;99.90
16801;DHT22;8518;53.236;10.384;2023-01-09T06:44:27;6.90;99.90
16801;DHT22;8518;53.236;10.384;2023-01-09T06:46:52;6.90;99.90
16801;DHT22;8518;53.236;10.384;2023-01-09T06:49:18;6.90;99.90
16801;DHT22;8518;53.236;10.384;2023-01-09T06:51:48;6.90;99.90
16801;DHT22;8518;53.236;10.384;2023-01-09T06:54:15;6.90;99.90
16801;DHT22;8518;53.236;10.384;2023-01-09T06:56:41;6.90;99.90
16801;DHT22;8518;53.236;10.384;2023-01-09T06:59:06;7.00;99.90
16801;DHT22;8518;53.236;10.384;2023-01-09T07:01:32;6.90;99.90
16801;DHT22;8518;53.236;10.384;2023-01-09T07:04:00;7.00;99.90
16801;DHT22;8518;53.236;10.384;2023-01-09T07:06:26;6.90;99.90
16801;DHT22;8518;53.236;10.384;2023-01-09T07:08:52;6.90;99.90
16801;DHT22;8518;53.236;10.384;2023-01-09T07:11:17;6.90;99.90
16801;DHT22;8518;53.236;10.384;2023-01-09T07:13:43;6.90;99.90
16801;DHT22;8518;53.236;10.384;2023-01-09T07:16:09;6.90;99.90
16801;DHT22;8518;53.236;10.384;2023-01-09T07:18:34;6.90;99.90
16801;DHT22;8518;53.236;10.384;2023-01-09T07:21:01;6.90;99.90
16801;DHT22;8518;53.236;10.384;2023-01-09T07:23:26;6.90;99.90
16801;DHT22;8518;53.236;10.384;2023-01-09T07:25:52;6.90;99.90
16801;DHT22;8518;53.236;10.384;2023-01-09T07:28:18;6.90;99.90
16801;DHT22;8518;53.236;10.384;2023-01-09T07:30:43;6.90;99.90
16801;DHT22;8518;53.236;10.384;2023-01-09T07:33:09;6.90;99.90
16801;DHT22;8518;53.236;10.384;2023-01-09T07:35:35;6.80;99.90
16801;DHT22;8518;53.236;10.384;2023-01-09T07:38:00;6.80;99.90
16801;DHT22;8518;53.236;10.384;2023-01-09T07:40:26;6.70;99.90
16801;DHT22;8518;53.236;10.384;2023-01-09T07:42:52;6.70;99.90
16801;DHT22;8518;53.236;10.384;2023-01-09T07:45:21;6.60;99.90
16801;DHT22;8518;53.236;10.384;2023-01-09T07:47:47;6.60;99.90
16801;DHT22;8518;53.236;10.384;2023-01-09T07:50:12;6.60;99.90
16801;DHT22;8518;53.236;10.384;2023-01-09T07:52:41;6.60;99.90
16801;DHT22;8518;53.236;10.384;2023-01-09T07:55:12;6.60;99.90
16801;DHT22;8518;53.236;10.384;2023-01-09T07:57:38;6.60;99.90
16801;DHT22;8518;53.236;10.384;2023-01-09T08:00:05;6.60;99.90
16801;DHT22;8518;53.236;10.384;2023-01-09T08:02:32;6.60;99.90
16801;DHT22;8518;53.236;10.384;2023-01-09T08:04:58;6.60;99.90
16801;DHT22;8518;53.236;10.384;2023-01-09T08:07:23;6.50;99.90
16801;DHT22;8518;53.236;10.384;2023-01-09T08:09:49;6.50;99.90
16801;DHT22;8518;53.236;10.384;2023-01-09T08:12:14;6.50;99.90
16801;DHT22;8518;53.236;10.384;2023-01-09T08:14:41;6.50;99.90
16801;DHT22;8518;53.236;10.384;2023-01-09T08:17:06;6.50;99.90
16801;DHT22;8518;53.236;10.384;2023-01-09T08:19:33;6.50;99.90
16801;DHT22;8518;53.236;10.384;2023-01-09T08:22:02;6.50;99.90
16801;DHT22;8518;53.236;10.384;2023-01-09T08:24:28;6.50;99.90
16801;DHT22;8518;53.236;10.384;2023-01-09T08:26:54;6.50;99.90
16801;DHT22;8518;53.236;10.384;2023-01-09T08:29:20;6.50;99.90
16801;DHT22;8518;53.236;10.384;2023-01-09T08:31:46;6.50;99.90
16801;DHT22;8518;53.236;10.384;2023-01-09T08:34:11;6.50;99.90
16801;DHT22;8518;53.236;10.384;2023-01-09T08:36:37;6.50;99.90
16801;DHT22;8518;53.236;10.384;2023-01-09T08:39:03;6.50;99.90
16801;DHT22;8518;53.236;10.384;2023-01-09T08:41:28;6.50;99.90
16801;DHT22;8518;53.236;10.384;2023-01-09T08:44:12;6.50;99.90
16801;DHT22;8518;53.236;10.384;2023-01-09T08:46:57;6.60;99.90
16801;DHT22;8518;53.236;10.384;2023-01-09T08:49:36;6.80;99.90
16801;DHT22;8518;53.236;10.384;2023-01-09T08:52:03;6.80;99.90
16801;DHT22;8518;53.236;10.384;2023-01-09T08:54:30;6.90;99.90
16801;DHT22;8518;53.236;10.384;2023-01-09T08:56:55;7.00;99.90
16801;DHT22;8518;53.236;10.384;2023-01-09T08:59:21;7.00;99.90
16801;DHT22;8518;53.236;10.384;2023-01-09T09:01:47;7.10;99.90
16801;DHT22;8518;53.236;10.384;2023-01-09T09:04:13;7.10;99.90
16801;DHT22;8518;53.236;10.384;2023-01-09T09:06:39;7.10;99.90
16801;DHT22;8518;53.236;10.384;2023-01-09T09:09:05;7.00;99.90
16801;DHT22;8518;53.236;10.384;2023-01-09T09:11:35;6.90;99.90
16801;DHT22;8518;53.236;10.384;2023-01-09T09:14:01;7.10;99.90
16801;DHT22;8518;53.236;10.384;2023-01-09T09:16:47;7.40;99.90
16801;DHT22;8518;53.236;10.384;2023-01-09T09:19:13;8.00;99.90
16801;DHT22;8518;53.236;10.384;2023-01-09T09:21:39;8.70;99.90
16801;DHT22;8518;53.236;10.384;2023-01-09T09:24:04;8.70;99.90
16801;DHT22;8518;53.236;10.384;2023-01-09T09:26:30;8.60;99.90
16801;DHT22;8518;53.236;10.384;2023-01-09T09:28:57;8.50;99.90
16801;DHT22;8518;53.236;10.384;2023-01-09T09:31:22;8.90;99.90
16801;DHT22;8518;53.236;10.384;2023-01-09T09:33:48;9.40;99.90
16801;DHT22;8518;53.236;10.384;2023-01-09T09:36:14;9.30;99.90
16801;DHT22;8518;53.236;10.384;2023-01-09T09:38:39;8.70;99.90
16801;DHT22;8518;53.236;10.384;2023-01-09T09:47:14;7.50;99.90
16801;DHT22;8518;53.236;10.384;2023-01-09T09:55:36;7.20;99.90
16801;DHT22;8518;53.236;10.384;2023-01-09T09:58:15;7.10;99.90
16801;DHT22;8518;53.236;10.384;2023-01-09T10:00:42;7.00;99.90
16801;DHT22;8518;53.236;10.384;2023-01-09T10:03:34;6.90;99.90
16801;DHT22;8518;53.236;10.384;2023-01-09T10:06:14;7.30;99.90
16801;DHT22;8518;53.236;10.384;2023-01-09T10:11:25;9.20;99.90
16801;DHT22;8518;53.236;10.384;2023-01-09T10:13:52;9.90;99.90
16801;DHT22;8518;53.236;10.384;2023-01-09T10:16:42;9.60;99.90
16801;DHT22;8518;53.236;10.384;2023-01-09T10:30:59;10.50;99.90
16801;DHT22;8518;53.236;10.384;2023-01-09T10:39:22;11.90;99.90
16801;DHT22;8518;53.236;10.384;2023-01-09T10:41:59;12.00;99.90
16801;DHT22;8518;53.236;10.384;2023-01-09T10:44:33;12.80;99.90
16801;DHT22;8518;53.236;10.384;2023-01-09T10:47:14;13.20;99.90
16801;DHT22;8518;53.236;10.384;2023-01-09T10:49:41;13.50;99.90
16801;DHT22;8518;53.236;10.384;2023-01-09T10:52:15;14.80;99.90
16801;DHT22;8518;53.236;10.384;2023-01-09T10:54:50;16.70;99.90
16801;DHT22;8518;53.236;10.384;2023-01-09T10:57:28;17.30;99.90
16801;DHT22;8518;53.236;10.384;2023-01-09T10:59:58;17.00;99.90
16801;DHT22;8518;53.236;10.384;2023-01-09T11:02:30;17.00;99.90
16801;DHT22;8518;53.236;10.384;2023-01-09T11:04:56;17.40;99.90
16801;DHT22;8518;53.236;10.384;2023-01-09T11:07:25;18.00;99.90
16801;DHT22;8518;53.236;10.384;2023-01-09T11:10:03;18.50;99.90
16801;DHT22;8518;53.236;10.384;2023-01-09T11:12:31;18.70;99.90
16801;DHT22;8518;53.236;10.384;2023-01-09T11:17:48;17.60;99.90
16801;DHT22;8518;53.236;10.384;2023-01-09T11:20:35;16.20;99.90
16801;DHT22;8518;53.236;10.384;2023-01-09T11:23:01;14.50;99.90
16801;DHT22;8518;53.236;10.384;2023-01-09T11:25:27;13.70;99.90
16801;DHT22;8518;53.236;10.384;2023-01-09T11:30:34;12.50;99.90
16801;DHT22;8518;53.236;10.384;2023-01-09T11:33:22;12.00;99.90
16801;DHT22;8518;53.236;10.384;2023-01-09T11:36:02;11.20;99.90
16801;DHT22;8518;53.236;10.384;2023-01-09T11:38:43;11.20;99.90
16801;DHT22;8518;53.236;10.384;2023-01-09T11:41:16;11.70;99.90
16801;DHT22;8518;53.236;10.384;2023-01-09T11:43:45;11.70;99.90
16801;DHT22;8518;53.236;10.384;2023-01-09T11:49:04;11.80;99.90
16801;DHT22;8518;53.236;10.384;2023-01-09T11:51:32;12.20;99.90
16801;DHT22;8518;53.236;10.384;2023-01-09T11:54:25;12.90;99.90
16801;DHT22;8518;53.236;10.384;2023-01-09T11:56:52;12.90;99.90
16801;DHT22;8518;53.236;10.384;2023-01-09T11:59:24;13.20;99.90
16801;DHT22;8518;53.236;10.384;2023-01-09T12:04:49;14.20;99.90
16801;DHT22;8518;53.236;10.384;2023-01-09T12:22:06;9.70;99.90
16801;DHT22;8518;53.236;10.384;2023-01-09T12:28:00;9.10;99.90
16801;DHT22;8518;53.236;10.384;2023-01-09T12:33:27;8.90;99.90
16801;DHT22;8518;53.236;10.384;2023-01-09T12:38:47;8.80;99.90
16801;DHT22;8518;53.236;10.384;2023-01-09T12:47:12;8.70;99.90
16801;DHT22;8518;53.236;10.384;2023-01-09T12:49:34;8.60;99.90
16801;DHT22;8518;53.236;10.384;2023-01-09T12:52:17;8.70;99.90
16801;DHT22;8518;53.236;10.384;2023-01-09T12:55:07;8.80;99.90
16801;DHT22;8518;53.236;10.384;2023-01-09T12:57:43;9.00;99.90
16801;DHT22;8518;53.236;10.384;2023-01-09T13:00:26;9.30;99.90
16801;DHT22;8518;53.236;10.384;2023-01-09T13:05:34;11.50;99.90
16801;DHT22;8518;53.236;10.384;2023-01-09T13:08:06;11.90;99.90
16801;DHT22;8518;53.236;10.384;2023-01-09T13:10:38;11.60;99.90
16801;DHT22;8518;53.236;10.384;2023-01-09T13:13:17;11.10;99.90
16801;DHT22;8518;53.236;10.384;2023-01-09T13:15:51;10.50;99.90
16801;DHT22;8518;53.236;10.384;2023-01-09T13:20:54;9.70;99.90
16801;DHT22;8518;53.236;10.384;2023-01-09T13:26:27;9.20;99.90
16801;DHT22;8518;53.236;10.384;2023-01-09T13:29:01;9.20;99.90
16801;DHT22;8518;53.236;10.384;2023-01-09T13:31:38;9.20;99.90
16801;DHT22;8518;53.236;10.384;2023-01-09T13:34:22;9.10;99.90
16801;DHT22;8518;53.236;10.384;2023-01-09T13:36:51;8.90;99.90
16801;DHT22;8518;53.236;10.384;2023-01-09T13:39:31;8.80;99.90
16801;DHT22;8518;53.236;10.384;2023-01-09T13:41:59;8.70;99.90
16801;DHT22;8518;53.236;10.384;2023-01-09T13:44:46;8.70;99.90
16801;DHT22;8518;53.236;10.384;2023-01-09T13:47:19;8.60;99.90
16801;DHT22;8518;53.236;10.384;2023-01-09T13:59:43;8.50;99.90
16801;DHT22;8518;53.236;10.384;2023-01-09T14:05:11;8.50;99.90
16801;DHT22;8518;53.236;10.384;2023-01-09T14:07:39;8.50;99.90
16801;DHT22;8518;53.236;10.384;2023-01-09T14:10:31;8.50;99.90
16801;DHT22;8518;53.236;10.384;2023-01-09T14:12:59;8.50;99.90
16801;DHT22;8518;53.236;10.384;2023-01-09T14:18:01;8.50;99.90
16801;DHT22;8518;53.236;10.384;2023-01-09T14:20:40;8.40;99.90
16801;DHT22;8518;53.236;10.384;2023-01-09T14:23:06;8.40;99.90
16801;DHT22;8518;53.236;10.384;2023-01-09T14:25:37;8.30;99.90
16801;DHT22;8518;53.236;10.384;2023-01-09T14:28:06;8.20;99.90
16801;DHT22;8518;53.236;10.384;2023-01-09T14:41:29;8.10;99.90
16801;DHT22;8518;53.236;10.384;2023-01-09T14:44:28;8.00;99.90
16801;DHT22;8518;53.236;10.384;2023-01-09T14:47:02;8.00;99.90
16801;DHT22;8518;53.236;10.384;2023-01-09T14:49:38;8.00;99.90
16801;DHT22;8518;53.236;10.384;2023-01-09T14:52:26;8.00;99.90
16801;DHT22;8518;53.236;10.384;2023-01-09T14:54:57;7.90;99.90
16801;DHT22;8518;53.236;10.384;2023-01-09T15:00:03;7.90;99.90
16801;DHT22;8518;53.236;10.384;2023-01-09T15:02:31;8.00;99.90
16801;DHT22;8518;53.236;10.384;2023-01-09T15:05:04;8.00;99.90
16801;DHT22;8518;53.236;10.384;2023-01-09T15:07:35;8.00;99.90
16801;DHT22;8518;53.236;10.384;2023-01-09T15:10:06;7.90;99.90
16801;DHT22;8518;53.236;10.384;2023-01-09T15:12:32;7.90;99.90
16801;DHT22;8518;53.236;10.384;2023-01-09T15:15:00;8.00;99.90
16801;DHT22;8518;53.236;10.384;2023-01-09T15:17:29;8.00;99.90
16801;DHT22;8518;53.236;10.384;2023-01-09T15:19:58;8.10;99.90
16801;DHT22;8518;53.236;10.384;2023-01-09T15:24:55;8.10;99.90
16801;DHT22;8518;53.236;10.384;2023-01-09T15:27:20;8.20;99.90
16801;DHT22;8518;53.236;10.384;2023-01-09T15:29:48;8.20;99.90
16801;DHT22;8518;53.236;10.384;2023-01-09T15:34:43;8.20;99.90
16801;DHT22;8518;53.236;10.384;2023-01-09T15:37:28;8.10;99.90
16801;DHT22;8518;53.236;10.384;2023-01-09T15:39:58;7.90;99.90
16801;DHT22;8518;53.236;10.384;2023-01-09T15:42:37;7.80;99.90
16801;DHT22;8518;53.236;10.384;2023-01-09T15:45:28;7.60;99.90
16801;DHT22;8518;53.236;10.384;2023-01-09T15:50:56;7.70;99.90
16801;DHT22;8518;53.236;10.384;2023-01-09T15:53:26;7.70;99.90
16801;DHT22;8518;53.236;10.384;2023-01-09T15:58:55;7.70;99.90
16801;DHT22;8518;53.236;10.384;2023-01-09T16:01:37;7.60;99.90
16801;DHT22;8518;53.236;10.384;2023-01-09T16:04:10;7.60;99.90
16801;DHT22;8518;53.236;10.384;2023-01-09T16:06:41;7.60;99.90
16801;DHT22;8518;53.236;10.384;2023-01-09T16:09:32;7.60;99.90
16801;DHT22;8518;53.236;10.384;2023-01-09T16:12:01;7.60;99.90
16801;DHT22;8518;53.236;10.384;2023-01-09T16:14:35;7.60;99.90
16801;DHT22;8518;53.236;10.384;2023-01-09T16:17:21;7.60;99.90
16801;DHT22;8518;53.236;10.384;2023-01-09T16:20:13;7.60;99.90
16801;DHT22;8518;53.236;10.384;2023-01-09T16:22:53;7.60;99.90
16801;DHT22;8518;53.236;10.384;2023-01-09T16:25:31;7.50;99.90
16801;DHT22;8518;53.236;10.384;2023-01-09T16:30:52;7.50;99.90
16801;DHT22;8518;53.236;10.384;2023-01-09T16:33:24;7.50;99.90
16801;DHT22;8518;53.236;10.384;2023-01-09T16:35:50;7.50;99.90
16801;DHT22;8518;53.236;10.384;2023-01-09T16:38:16;7.50;99.90
16801;DHT22;8518;53.236;10.384;2023-01-09T16:40:59;7.40;99.90
16801;DHT22;8518;53.236;10.384;2023-01-09T16:43:43;7.30;99.90
16801;DHT22;8518;53.236;10.384;2023-01-09T16:46:10;7.40;99.90
16801;DHT22;8518;53.236;10.384;2023-01-09T16:48:39;7.40;99.90
16801;DHT22;8518;53.236;10.384;2023-01-09T16:51:07;7.40;99.90
16801;DHT22;8518;53.236;10.384;2023-01-09T16:53:35;7.40;99.90
16801;DHT22;8518;53.236;10.384;2023-01-09T16:56:01;7.40;99.90
16801;DHT22;8518;53.236;10.384;2023-01-09T16:58:29;7.30;99.90
16801;DHT22;8518;53.236;10.384;2023-01-09T17:00:56;7.20;99.90
16801;DHT22;8518;53.236;10.384;2023-01-09T17:03:22;7.20;99.90
16801;DHT22;8518;53.236;10.384;2023-01-09T17:05:51;7.10;99.90
16801;DHT22;8518;53.236;10.384;2023-01-09T17:08:24;7.10;99.90
16801;DHT22;8518;53.236;10.384;2023-01-09T17:10:50;7.10;99.90
16801;DHT22;8518;53.236;10.384;2023-01-09T17:13:16;7.00;99.90
16801;DHT22;8518;53.236;10.384;2023-01-09T17:15:42;7.10;99.90
16801;DHT22;8518;53.236;10.384;2023-01-09T17:18:20;7.00;99.90
16801;DHT22;8518;53.236;10.384;2023-01-09T17:20:48;7.00;99.90
16801;DHT22;8518;53.236;10.384;2023-01-09T17:23:14;7.00;99.90
16801;DHT22;8518;53.236;10.384;2023-01-09T17:25:41;6.90;99.90
16801;DHT22;8518;53.236;10.384;2023-01-09T17:28:26;6.80;99.90
16801;DHT22;8518;53.236;10.384;2023-01-09T17:31:05;6.80;99.90
16801;DHT22;8518;53.236;10.384;2023-01-09T17:33:33;6.70;99.90
16801;DHT22;8518;53.236;10.384;2023-01-09T17:36:05;6.70;99.90
16801;DHT22;8518;53.236;10.384;2023-01-09T17:38:31;6.70;99.90
16801;DHT22;8518;53.236;10.384;2023-01-09T17:40:57;6.70;99.90
16801;DHT22;8518;53.236;10.384;2023-01-09T17:43:23;6.70;99.90
16801;DHT22;8518;53.236;10.384;2023-01-09T17:45:49;6.70;99.90
16801;DHT22;8518;53.236;10.384;2023-01-09T17:48:17;6.70;99.90
16801;DHT22;8518;53.236;10.384;2023-01-09T17:50:45;6.80;99.90
16801;DHT22;8518;53.236;10.384;2023-01-09T17:53:11;6.70;99.90
16801;DHT22;8518;53.236;10.384;2023-01-09T17:55:38;6.60;99.90
16801;DHT22;8518;53.236;10.384;2023-01-09T17:58:04;6.60;99.90
16801;DHT22;8518;53.236;10.384;2023-01-09T18:00:34;6.60;99.90
16801;DHT22;8518;53.236;10.384;2023-01-09T18:03:04;6.70;99.90
16801;DHT22;8518;53.236;10.384;2023-01-09T18:05:32;6.70;99.90
16801;DHT22;8518;53.236;10.384;2023-01-09T18:07:58;6.70;99.90
16801;DHT22;8518;53.236;10.384;2023-01-09T18:10:25;6.70;99.90
16801;DHT22;8518;53.236;10.384;2023-01-09T18:12:54;6.70;99.90
16801;DHT22;8518;53.236;10.384;2023-01-09T18:15:21;6.80;99.90
16801;DHT22;8518;53.236;10.384;2023-01-09T18:17:49;6.70;99.90
16801;DHT22;8518;53.236;10.384;2023-01-09T18:20:16;6.80;99.90
16801;DHT22;8518;53.236;10.384;2023-01-09T18:22:42;6.80;99.90
16801;DHT22;8518;53.236;10.384;2023-01-09T18:25:08;6.80;99.90
16801;DHT22;8518;53.236;10.384;2023-01-09T18:27:37;6.80;99.90
16801;DHT22;8518;53.236;10.384;2023-01-09T18:30:04;6.80;99.90
16801;DHT22;8518;53.236;10.384;2023-01-09T18:32:30;6.70;99.90
16801;DHT22;8518;53.236;10.384;2023-01-09T18:34:59;6.80;99.90
16801;DHT22;8518;53.236;10.384;2023-01-09T18:37:25;6.80;99.90